Parkhill, Pennsylvania
Current Conditions -  °F | °C
As of 6:54 AM on Thursday 29 Jan 2015 (Local Time) from KJST Reporting Station
Clear Clear  
Wind Chill: 11°   Ceiling: Unl
Heat Index: 23°   Visibility: 10mi
Dew Point:   Wind: 13mph
Humidity: 42%   Direction: 170°S
Pressure: 30.07"   Gusts: NA
Location:  40.36°N, 78.87°W
Report Text: KJST 291154Z AUTO 17011KT 10SM CLR M05/M16 A3007 RMK AO2 SLP218 T10501161 11050 21111 58023
Loading
Personal Weather Stations






























Interactive Weather Map New forecast layout! Learn more

10-Day Weather Forecast

Advertisements
Track Severe Weather on mobile